Terminal Aerodrome Forecast
Issued by NWS Tuscon, AZ

Home | Current Version | Previous Version | Text Only | Print | Product List | Glossary On
Versions: 1 2 3 4 5 6 7 8 9 10 11 12 13 14 15 16 17 18
000
FTUS45 KTWC 010500
TAFDUG
TAF
KDUG 010539Z 0106/0206 VRB04KT P6SM FEW010 BKN040
     FM011100 VRB03KT 5SM BR SCT010 BKN030
     FM011600 VRB04KT P6SM BKN030
     FM011900 35005KT P6SM SCT030
     FM020100 VRB04KT P6SM FEW030=

USA.gov is the U.S. government's official web portal to all federal, state and local government web resources and services.